createdAt,value
2017-09-14T00:00:25.907Z,1.60
2017-09-14T00:02:54.195Z,1.60
2017-09-14T00:05:22.501Z,1.37
2017-09-14T00:07:50.022Z,1.37
2017-09-14T00:10:17.553Z,1.53
2017-09-14T00:12:45.073Z,1.67
2017-09-14T00:15:12.613Z,1.33
2017-09-14T00:17:40.893Z,1.80
2017-09-14T00:20:09.206Z,1.67
2017-09-14T00:22:36.724Z,1.67
2017-09-14T00:25:05.013Z,2.13
2017-09-14T00:27:32.549Z,1.93
2017-09-14T00:30:00.069Z,1.53
2017-09-14T00:32:27.600Z,2.60
2017-09-14T00:34:55.122Z,1.67
2017-09-14T00:37:23.050Z,1.67
2017-09-14T00:39:50.566Z,1.73
2017-09-14T00:42:18.897Z,2.47
2017-09-14T00:44:46.413Z,2.00
2017-09-14T00:47:14.697Z,1.83
2017-09-14T00:49:43.590Z,1.80
2017-09-14T00:52:11.869Z,1.77
2017-09-14T00:54:40.178Z,1.90
2017-09-14T00:57:07.690Z,2.43
2017-09-14T00:59:35.997Z,2.30
2017-09-14T01:02:03.513Z,1.97
2017-09-14T01:04:31.072Z,2.50
2017-09-14T01:06:58.589Z,2.20
2017-09-14T01:09:26.101Z,2.43
2017-09-14T01:11:54.401Z,2.10
2017-09-14T01:14:34.717Z,2.17
2017-09-14T01:17:02.252Z,2.40
2017-09-14T01:19:29.766Z,3.07
2017-09-14T01:21:58.068Z,2.57
2017-09-14T01:24:26.932Z,3.13
2017-09-14T01:26:55.247Z,3.20
2017-09-14T01:29:22.784Z,2.43
2017-09-14T01:31:51.105Z,2.43
2017-09-14T01:34:19.771Z,2.80
2017-09-14T01:36:47.286Z,2.43
2017-09-14T01:39:14.816Z,2.70
2017-09-14T01:41:42.346Z,3.03
2017-09-14T01:44:09.882Z,2.70
2017-09-14T01:46:37.410Z,3.00
2017-09-14T01:49:04.945Z,2.40
2017-09-14T01:51:32.469Z,3.70
2017-09-14T01:54:00.025Z,2.90
2017-09-14T01:56:28.305Z,2.27
2017-09-14T01:58:55.832Z,2.23
2017-09-14T02:01:23.377Z,3.00
2017-09-14T02:03:50.897Z,2.40
2017-09-14T02:06:18.444Z,2.77
2017-09-14T02:08:47.097Z,2.30
2017-09-14T02:11:14.630Z,2.90
2017-09-14T02:13:42.140Z,2.90
2017-09-14T02:16:10.448Z,2.47
2017-09-14T02:18:38.360Z,2.57
2017-09-14T02:21:05.922Z,3.00
2017-09-14T02:23:33.436Z,4.30
2017-09-14T02:26:02.300Z,3.13
2017-09-14T02:28:30.597Z,2.60
2017-09-14T02:30:58.108Z,3.17
2017-09-14T02:33:25.644Z,3.23
2017-09-14T02:35:53.157Z,2.20
2017-09-14T02:38:21.449Z,2.70
2017-09-14T02:40:48.960Z,2.67
2017-09-14T02:43:16.493Z,2.37
2017-09-14T02:45:44.009Z,3.13
2017-09-14T02:48:12.414Z,2.63
2017-09-14T02:50:39.928Z,3.40
2017-09-14T02:53:07.438Z,2.90
2017-09-14T02:55:34.960Z,2.80
2017-09-14T02:58:03.241Z,2.93
2017-09-14T03:00:31.547Z,2.67
2017-09-14T03:02:59.056Z,3.20
2017-09-14T03:05:26.585Z,2.50
2017-09-14T03:07:54.098Z,3.30
2017-09-14T03:10:22.397Z,2.57
2017-09-14T03:12:49.923Z,2.73
2017-09-14T03:15:18.244Z,2.47
2017-09-14T03:17:45.789Z,2.90
2017-09-14T03:20:13.309Z,2.90
2017-09-14T03:22:40.852Z,2.63
2017-09-14T03:25:08.369Z,3.00
2017-09-14T03:27:35.904Z,2.40
2017-09-14T03:30:04.191Z,3.80
2017-09-14T03:32:32.488Z,2.50
2017-09-14T03:35:00.005Z,2.83
2017-09-14T03:37:27.564Z,2.53
2017-09-14T03:39:56.216Z,2.50
2017-09-14T03:42:23.737Z,2.73
2017-09-14T03:44:52.027Z,2.53
2017-09-14T03:47:19.553Z,2.50
2017-09-14T03:49:47.080Z,3.10
2017-09-14T03:52:14.597Z,2.40
2017-09-14T03:54:42.158Z,2.93
2017-09-14T03:57:09.673Z,2.47
2017-09-14T03:59:37.197Z,2.70
2017-09-14T04:02:04.729Z,3.03
2017-09-14T04:04:33.008Z,2.90
2017-09-14T04:07:01.309Z,2.63
2017-09-14T04:09:28.824Z,2.63
2017-09-14T04:11:56.365Z,2.60
2017-09-14T04:14:23.890Z,2.63
2017-09-14T04:16:51.450Z,2.60
2017-09-14T04:19:18.957Z,3.13
2017-09-14T04:21:47.605Z,1.93
2017-09-14T04:24:15.902Z,2.33
2017-09-14T04:26:44.619Z,2.60
2017-09-14T04:29:12.921Z,2.03
2017-09-14T04:31:40.433Z,2.73
2017-09-14T04:34:07.965Z,2.13
2017-09-14T04:36:35.489Z,2.50
2017-09-14T04:39:03.816Z,2.73
2017-09-14T04:41:32.093Z,1.93
2017-09-14T04:43:59.646Z,2.10
2017-09-14T04:46:27.181Z,1.90
2017-09-14T04:48:54.697Z,2.30
2017-09-14T04:51:22.232Z,2.37
2017-09-14T04:53:49.749Z,2.30
2017-09-14T04:56:17.295Z,2.60
2017-09-14T04:58:45.577Z,2.23
2017-09-14T05:01:14.281Z,1.93
2017-09-14T05:03:41.798Z,2.30
2017-09-14T05:06:09.305Z,2.47
2017-09-14T05:08:36.845Z,2.60
2017-09-14T05:11:05.125Z,1.53
2017-09-14T05:13:33.423Z,1.77
2017-09-14T05:16:00.940Z,1.97
2017-09-14T05:18:28.473Z,2.60
2017-09-14T05:20:55.989Z,2.77
2017-09-14T05:23:23.537Z,2.30
2017-09-14T05:25:51.817Z,2.10
2017-09-14T05:28:20.088Z,2.20
2017-09-14T05:30:48.384Z,2.40
2017-09-14T05:33:15.893Z,2.77
2017-09-14T05:35:43.422Z,1.77
2017-09-14T05:38:10.937Z,2.93
2017-09-14T05:40:39.605Z,2.90
2017-09-14T05:43:07.126Z,2.60
2017-09-14T05:45:34.689Z,2.47
2017-09-14T05:48:02.217Z,3.00
2017-09-14T05:50:29.745Z,2.77
2017-09-14T05:52:57.289Z,2.70
2017-09-14T05:55:24.825Z,2.93
2017-09-14T05:57:53.704Z,2.00
2017-09-14T06:00:22.568Z,2.73
2017-09-14T06:02:50.879Z,2.63
2017-09-14T06:05:18.397Z,2.53
2017-09-14T06:07:46.729Z,2.27
2017-09-14T06:10:14.245Z,2.03
2017-09-14T06:12:42.526Z,1.97
2017-09-14T06:15:10.828Z,2.40
2017-09-14T06:17:38.341Z,2.30
2017-09-14T06:20:05.937Z,2.40
2017-09-14T06:22:33.468Z,2.67
2017-09-14T06:25:01.779Z,2.80
2017-09-14T06:27:29.293Z,2.20
2017-09-14T06:29:56.829Z,2.13
2017-09-14T06:32:24.349Z,3.00
2017-09-14T06:34:52.306Z,2.30
2017-09-14T06:37:20.591Z,2.40
2017-09-14T06:39:49.253Z,1.70
2017-09-14T06:42:16.776Z,2.40
2017-09-14T06:44:44.297Z,2.07
2017-09-14T06:47:11.833Z,1.77
2017-09-14T06:49:39.911Z,2.33
2017-09-14T06:52:07.490Z,2.23
2017-09-14T06:54:35.003Z,2.70
2017-09-14T06:57:02.549Z,2.30
2017-09-14T06:59:30.086Z,1.70
2017-09-14T07:01:57.610Z,2.10
2017-09-14T07:04:25.161Z,1.57
2017-09-14T07:06:53.453Z,2.00
2017-09-14T07:09:21.009Z,2.00
2017-09-14T07:11:49.285Z,2.07
2017-09-14T07:14:16.813Z,2.20
2017-09-14T07:16:44.693Z,2.03
2017-09-14T07:19:12.985Z,1.90
2017-09-14T07:21:40.521Z,2.13
2017-09-14T07:24:09.542Z,2.13
2017-09-14T07:26:38.420Z,2.40
2017-09-14T07:29:06.784Z,2.70
2017-09-14T07:31:34.381Z,2.27
2017-09-14T07:34:02.709Z,2.03
2017-09-14T07:36:31.369Z,1.90
2017-09-14T07:38:58.902Z,2.20
2017-09-14T07:41:27.567Z,2.57
2017-09-14T07:43:55.883Z,2.70
2017-09-14T07:46:23.396Z,2.30
2017-09-14T07:48:50.928Z,2.27
2017-09-14T07:51:18.441Z,1.90
2017-09-14T07:53:47.132Z,2.20
2017-09-14T07:56:14.640Z,2.10
2017-09-14T07:58:42.162Z,2.07
2017-09-14T08:01:10.098Z,2.63
2017-09-14T08:03:38.964Z,2.33
2017-09-14T08:06:06.510Z,3.57
2017-09-14T08:08:35.534Z,2.07
2017-09-14T08:11:03.066Z,2.87
2017-09-14T08:13:30.581Z,2.10
2017-09-14T08:15:59.481Z,2.90
2017-09-14T08:18:26.988Z,2.50
2017-09-14T08:20:55.297Z,2.20
2017-09-14T08:23:24.189Z,2.50
2017-09-14T08:25:52.473Z,2.60
2017-09-14T08:28:20.769Z,3.00
2017-09-14T08:30:48.294Z,2.40
2017-09-14T08:33:16.622Z,3.13
2017-09-14T08:35:44.137Z,2.10
2017-09-14T08:38:12.430Z,2.77
2017-09-14T08:40:39.975Z,2.03
2017-09-14T08:43:08.260Z,2.30
2017-09-14T08:45:36.930Z,2.17
2017-09-14T08:48:04.453Z,2.47
2017-09-14T08:50:32.017Z,2.70
2017-09-14T08:52:59.558Z,2.97
2017-09-14T08:55:27.471Z,2.20
2017-09-14T08:57:55.019Z,2.00
2017-09-14T09:00:22.546Z,2.17
2017-09-14T09:02:50.080Z,3.40
2017-09-14T09:05:18.382Z,2.67
2017-09-14T09:07:45.924Z,1.87
2017-09-14T09:10:14.583Z,2.60
2017-09-14T09:12:42.092Z,2.13
2017-09-14T09:15:10.774Z,2.40
2017-09-14T09:17:38.286Z,3.43
2017-09-14T09:20:06.350Z,2.37
2017-09-14T09:22:33.870Z,2.50
2017-09-14T09:25:01.386Z,2.60
2017-09-14T09:27:30.057Z,2.50
2017-09-14T09:29:57.569Z,2.40
2017-09-14T09:32:25.117Z,2.87
2017-09-14T09:34:52.632Z,1.90
2017-09-14T09:37:21.484Z,2.33
2017-09-14T09:39:50.374Z,2.20
2017-09-14T09:42:19.244Z,1.87
2017-09-14T09:44:48.140Z,2.00
2017-09-14T09:47:17.005Z,2.20
2017-09-14T09:49:45.864Z,1.57
2017-09-14T09:52:14.736Z,2.03
2017-09-14T09:54:43.604Z,2.30
2017-09-14T09:57:12.517Z,1.70
2017-09-14T09:59:41.485Z,2.40
2017-09-14T10:02:10.595Z,2.60
2017-09-14T10:04:39.696Z,1.57
2017-09-14T10:07:08.803Z,1.77
2017-09-14T10:09:38.810Z,2.17
2017-09-14T10:12:07.842Z,2.10
2017-09-14T10:14:37.412Z,1.80
2017-09-14T10:17:06.446Z,1.90
2017-09-14T10:19:34.730Z,1.50
2017-09-14T10:22:04.640Z,2.60
2017-09-14T10:24:33.716Z,1.97
2017-09-14T10:27:02.609Z,1.97
2017-09-14T10:29:31.484Z,2.20
2017-09-14T10:32:00.349Z,1.87
2017-09-14T10:34:27.868Z,2.00
2017-09-14T10:36:56.732Z,1.70
2017-09-14T10:39:24.281Z,1.90
2017-09-14T10:41:51.792Z,1.97
2017-09-14T10:44:19.310Z,1.93
2017-09-14T10:46:46.831Z,2.13
2017-09-14T10:49:15.502Z,1.80
2017-09-14T10:51:43.804Z,2.70
2017-09-14T10:54:11.321Z,2.43
2017-09-14T10:56:39.574Z,2.03
2017-09-14T10:59:07.089Z,1.80
2017-09-14T11:01:35.965Z,2.30
2017-09-14T11:04:03.885Z,1.50
2017-09-14T11:06:31.417Z,1.87
2017-09-14T11:08:59.697Z,1.87
2017-09-14T11:11:28.745Z,1.90
2017-09-14T11:13:56.257Z,1.60
2017-09-14T11:16:24.238Z,1.40
2017-09-14T11:18:53.260Z,2.20
2017-09-14T11:21:20.797Z,1.77
2017-09-14T11:23:48.313Z,1.73
2017-09-14T11:26:16.629Z,2.10
2017-09-14T11:28:45.493Z,2.17
2017-09-14T11:31:13.794Z,3.00
2017-09-14T11:33:41.302Z,3.53
2017-09-14T11:36:08.837Z,3.23
2017-09-14T11:38:37.702Z,2.60
2017-09-14T11:41:05.626Z,2.87
2017-09-14T11:43:34.500Z,3.20
2017-09-14T11:46:02.057Z,4.07
2017-09-14T11:48:29.568Z,3.77
2017-09-14T11:50:58.430Z,2.70
2017-09-14T11:53:27.295Z,3.10
2017-09-14T11:55:55.957Z,2.73
2017-09-14T11:58:23.483Z,2.07
2017-09-14T12:00:52.345Z,2.57
2017-09-14T12:03:19.876Z,3.20
2017-09-14T12:05:47.388Z,2.27
2017-09-14T12:08:16.058Z,2.93
2017-09-14T12:10:43.570Z,3.40
2017-09-14T12:13:11.105Z,2.60
2017-09-14T12:15:39.376Z,2.83
2017-09-14T12:18:07.670Z,2.80
2017-09-14T12:20:35.185Z,2.67
2017-09-14T12:23:02.717Z,2.93
2017-09-14T12:25:31.369Z,4.63
2017-09-14T12:27:58.896Z,2.37
2017-09-14T12:30:27.757Z,5.40
2017-09-14T12:32:56.640Z,2.47
2017-09-14T12:35:25.492Z,1.97
2017-09-14T12:37:53.816Z,2.20
2017-09-14T12:40:21.350Z,2.30
2017-09-14T12:42:50.389Z,1.70
2017-09-14T12:45:17.897Z,1.77
2017-09-14T12:47:45.421Z,1.50
2017-09-14T12:50:14.286Z,0.97
2017-09-14T12:52:41.813Z,1.23
2017-09-14T12:55:09.329Z,1.10
2017-09-14T12:57:36.842Z,1.10
2017-09-14T13:00:05.716Z,1.30
2017-09-14T13:02:33.232Z,1.20
2017-09-14T13:05:00.754Z,1.23
2017-09-14T13:07:28.271Z,0.80
2017-09-14T13:09:56.574Z,1.27
2017-09-14T13:12:24.109Z,1.27
2017-09-14T13:14:52.514Z,1.00
2017-09-14T13:17:20.034Z,2.03
2017-09-14T13:19:47.562Z,1.10
2017-09-14T13:22:15.068Z,0.87
2017-09-14T13:24:43.356Z,1.03
2017-09-14T13:27:12.217Z,1.07
2017-09-14T13:29:41.088Z,0.83
2017-09-14T13:32:08.597Z,0.70
2017-09-14T13:34:36.894Z,0.90
2017-09-14T13:37:05.752Z,0.70
2017-09-14T13:39:34.058Z,0.97
2017-09-14T13:42:02.916Z,0.73
2017-09-14T13:44:31.212Z,0.90
2017-09-14T13:47:00.068Z,0.83
2017-09-14T13:49:27.626Z,0.70
2017-09-14T13:51:55.137Z,0.90
2017-09-14T13:54:22.653Z,0.90
2017-09-14T13:56:51.541Z,0.80
2017-09-14T13:59:20.402Z,0.60
2017-09-14T14:01:47.929Z,0.93
2017-09-14T14:04:16.786Z,0.70
2017-09-14T14:06:45.656Z,0.90
2017-09-14T14:09:13.173Z,0.93
2017-09-14T14:11:40.702Z,0.70
2017-09-14T14:14:08.228Z,0.60
2017-09-14T14:16:37.108Z,1.20
2017-09-14T14:19:05.967Z,0.97
2017-09-14T14:21:34.843Z,0.70
2017-09-14T14:24:03.711Z,0.80
2017-09-14T14:26:32.588Z,0.73
2017-09-14T14:29:01.449Z,0.90
2017-09-14T14:31:30.327Z,1.27
2017-09-14T14:33:58.237Z,0.73
2017-09-14T14:36:25.770Z,1.07
2017-09-14T14:38:53.287Z,0.60
2017-09-14T14:41:22.198Z,0.60
2017-09-14T14:43:50.468Z,0.83
2017-09-14T14:46:18.754Z,0.70
2017-09-14T14:48:47.638Z,0.90
2017-09-14T14:51:16.492Z,0.73
2017-09-14T14:53:45.368Z,0.60
2017-09-14T14:56:14.228Z,0.87
2017-09-14T14:58:41.753Z,1.20
2017-09-14T15:01:09.265Z,0.60
2017-09-14T15:03:38.144Z,1.10
2017-09-14T15:06:06.425Z,0.83
2017-09-14T15:08:33.952Z,0.80
2017-09-14T15:11:02.250Z,1.03
2017-09-14T15:13:29.773Z,0.60
2017-09-14T15:15:58.646Z,1.10
2017-09-14T15:18:27.520Z,1.10
2017-09-14T15:20:56.377Z,1.00
2017-09-14T15:23:25.257Z,1.00
2017-09-14T15:25:54.117Z,1.07
2017-09-14T15:28:22.993Z,1.20
2017-09-14T15:30:51.858Z,1.30
2017-09-14T15:33:20.731Z,1.63
2017-09-14T15:35:49.585Z,0.97
2017-09-14T15:38:18.465Z,1.30
2017-09-14T15:40:53.088Z,1.07
2017-09-14T15:43:27.776Z,1.10
2017-09-14T15:45:56.640Z,1.00
2017-09-14T15:48:31.167Z,0.90
2017-09-14T15:51:05.789Z,0.90
2017-09-14T15:53:34.661Z,0.70
2017-09-14T15:56:03.542Z,0.70
2017-09-14T15:58:32.442Z,1.13
2017-09-14T16:01:01.300Z,0.97
2017-09-14T16:03:30.158Z,1.10
2017-09-14T16:05:59.042Z,1.40
2017-09-14T16:08:27.900Z,1.00
2017-09-14T16:10:56.936Z,1.80
2017-09-14T16:13:25.794Z,1.43
2017-09-14T16:15:54.668Z,1.90
2017-09-14T16:18:22.177Z,1.60
2017-09-14T16:20:51.064Z,2.27
2017-09-14T16:23:19.927Z,1.70
2017-09-14T16:25:48.804Z,1.97
2017-09-14T16:28:17.657Z,1.67
2017-09-14T16:30:46.537Z,1.93
2017-09-14T16:33:15.408Z,1.90
2017-09-14T16:35:44.281Z,1.80
2017-09-14T16:38:13.238Z,1.90
2017-09-14T16:40:42.113Z,2.40
2017-09-14T16:43:10.978Z,2.17
2017-09-14T16:45:39.859Z,2.03
2017-09-14T16:48:08.712Z,2.63
2017-09-14T16:50:37.584Z,2.00
2017-09-14T16:53:06.450Z,2.43
2017-09-14T16:55:35.324Z,2.37
2017-09-14T16:58:04.177Z,2.40
2017-09-14T17:00:33.069Z,2.23
2017-09-14T17:03:01.943Z,2.73
2017-09-14T17:05:30.821Z,3.50
2017-09-14T17:07:59.680Z,2.57
2017-09-14T17:10:28.545Z,2.57
2017-09-14T17:12:56.845Z,3.10
2017-09-14T17:15:24.348Z,3.20
2017-09-14T17:17:53.377Z,2.47
2017-09-14T17:20:21.659Z,3.43
2017-09-14T17:22:49.189Z,2.60
2017-09-14T17:25:17.473Z,3.00
2017-09-14T17:27:45.010Z,2.23
2017-09-14T17:30:12.520Z,2.50
2017-09-14T17:32:40.054Z,3.87
2017-09-14T17:35:07.569Z,3.33
2017-09-14T17:37:35.861Z,3.70
2017-09-14T17:40:04.617Z,3.43
2017-09-14T17:42:32.154Z,3.57
2017-09-14T17:44:59.668Z,3.40
2017-09-14T17:47:27.971Z,3.73
2017-09-14T17:49:55.489Z,3.40
2017-09-14T17:52:23.789Z,3.60
2017-09-14T17:54:51.313Z,3.50
2017-09-14T17:57:18.852Z,3.13
2017-09-14T17:59:46.386Z,3.37
2017-09-14T18:02:13.897Z,4.30
2017-09-14T18:04:41.433Z,4.00
2017-09-14T18:07:08.955Z,3.63
2017-09-14T18:09:36.481Z,4.20
2017-09-14T18:12:04.761Z,3.70
2017-09-14T18:14:33.048Z,4.37
2017-09-14T18:17:01.328Z,4.33
2017-09-14T18:19:29.644Z,3.47
2017-09-14T18:21:57.161Z,4.63
2017-09-14T18:24:25.457Z,3.53
2017-09-14T18:26:54.104Z,4.27
2017-09-14T18:29:21.639Z,3.60
2017-09-14T18:31:49.177Z,4.20
2017-09-14T18:34:17.514Z,4.33
2017-09-14T18:36:45.797Z,4.70
2017-09-14T18:39:14.102Z,4.43
2017-09-14T18:41:41.613Z,3.53
2017-09-14T18:44:09.141Z,4.10
2017-09-14T18:46:36.648Z,3.63
2017-09-14T18:49:04.941Z,4.50
2017-09-14T18:51:32.453Z,3.87
2017-09-14T18:53:59.983Z,4.60
2017-09-14T18:56:27.518Z,4.50
2017-09-14T18:58:55.813Z,5.00
2017-09-14T19:01:23.319Z,4.50
2017-09-14T19:03:50.853Z,4.57
2017-09-14T19:06:18.368Z,4.33
2017-09-14T19:08:47.272Z,4.90
2017-09-14T19:11:14.781Z,3.90
2017-09-14T19:13:42.304Z,3.93
2017-09-14T19:16:09.837Z,4.47
2017-09-14T19:18:38.112Z,4.00
2017-09-14T19:21:06.777Z,3.63
2017-09-14T19:23:34.305Z,3.67
2017-09-14T19:26:01.845Z,3.20
2017-09-14T19:28:29.360Z,3.37
2017-09-14T19:30:56.889Z,3.30
2017-09-14T19:33:24.396Z,3.10
2017-09-14T19:35:53.061Z,3.80
2017-09-14T19:38:20.577Z,2.60
2017-09-14T19:40:48.108Z,3.23
2017-09-14T19:43:16.380Z,3.30
2017-09-14T19:45:44.682Z,2.13
2017-09-14T19:48:12.209Z,2.83
2017-09-14T19:50:40.500Z,2.90
2017-09-14T19:53:08.776Z,2.37
2017-09-14T19:55:37.065Z,2.07
2017-09-14T19:58:04.576Z,2.90
2017-09-14T20:00:32.133Z,2.10
2017-09-14T20:02:59.645Z,2.03
2017-09-14T20:05:27.164Z,2.60
2017-09-14T20:07:56.040Z,1.70
2017-09-14T20:10:24.897Z,1.90
2017-09-14T20:12:53.768Z,1.90
2017-09-14T20:15:21.280Z,1.90
2017-09-14T20:17:48.814Z,1.93
2017-09-14T20:20:16.320Z,1.67
2017-09-14T20:22:43.841Z,2.17
2017-09-14T20:25:11.345Z,2.00
2017-09-14T20:27:39.637Z,1.90
2017-09-14T20:30:07.911Z,1.90
2017-09-14T20:32:36.208Z,1.43
2017-09-14T20:35:03.726Z,1.63
2017-09-14T20:37:31.254Z,1.47
2017-09-14T20:39:58.772Z,1.40
2017-09-14T20:42:27.064Z,1.40
2017-09-14T20:44:54.576Z,1.43
2017-09-14T20:47:22.117Z,1.33
2017-09-14T20:49:49.637Z,1.60
2017-09-14T20:52:17.185Z,1.60
2017-09-14T20:54:45.465Z,1.53
2017-09-14T20:57:13.741Z,1.50
2017-09-14T20:59:42.616Z,1.67
2017-09-14T21:02:11.477Z,1.20
2017-09-14T21:04:40.351Z,1.23
2017-09-14T21:07:09.215Z,1.30
2017-09-14T21:09:38.087Z,1.60
2017-09-14T21:12:06.949Z,1.10
2017-09-14T21:14:35.823Z,1.50
2017-09-14T21:17:04.788Z,1.57
2017-09-14T21:19:33.664Z,1.37
2017-09-14T21:22:02.525Z,1.17
2017-09-14T21:24:31.396Z,1.83
2017-09-14T21:27:00.256Z,1.50
2017-09-14T21:29:29.131Z,1.40
2017-09-14T21:31:57.993Z,1.27
2017-09-14T21:34:26.862Z,1.30
2017-09-14T21:36:55.716Z,1.30
2017-09-14T21:39:24.599Z,0.90
2017-09-14T21:41:53.473Z,0.90
2017-09-14T21:44:22.368Z,1.07
2017-09-14T21:46:51.233Z,1.20
2017-09-14T21:49:20.108Z,1.20
2017-09-14T21:51:48.970Z,1.00
2017-09-14T21:54:17.843Z,1.50
2017-09-14T21:56:46.700Z,1.10
2017-09-14T21:59:15.572Z,1.80
2017-09-14T22:01:43.080Z,1.20
2017-09-14T22:04:11.373Z,1.20
2017-09-14T22:06:38.886Z,0.93
2017-09-14T22:09:07.765Z,1.30
2017-09-14T22:11:35.276Z,0.90
2017-09-14T22:14:02.813Z,1.17
2017-09-14T22:16:31.669Z,1.00
2017-09-14T22:19:00.545Z,0.90
2017-09-14T22:21:29.408Z,1.20
2017-09-14T22:23:58.279Z,1.10
2017-09-14T22:26:27.132Z,1.23
2017-09-14T22:28:55.993Z,1.17
2017-09-14T22:31:24.868Z,1.20
2017-09-14T22:33:53.733Z,0.93
2017-09-14T22:36:22.608Z,0.97
2017-09-14T22:38:51.478Z,1.37
2017-09-14T22:41:20.352Z,1.10
2017-09-14T22:43:49.208Z,1.50
2017-09-14T22:46:18.095Z,1.20
2017-09-14T22:48:46.956Z,1.17
2017-09-14T22:51:15.829Z,2.00
2017-09-14T22:53:44.712Z,1.70
2017-09-14T22:56:13.580Z,1.30
2017-09-14T22:58:42.453Z,1.50
2017-09-14T23:01:11.337Z,1.67
2017-09-14T23:03:40.196Z,1.57
2017-09-14T23:06:09.073Z,1.63
2017-09-14T23:08:37.933Z,1.80
2017-09-14T23:11:06.824Z,1.60
2017-09-14T23:13:35.681Z,2.00
2017-09-14T23:16:04.532Z,1.80
2017-09-14T23:18:33.404Z,2.00
2017-09-14T23:21:02.268Z,1.77
2017-09-14T23:23:31.135Z,1.80
2017-09-14T23:25:59.987Z,1.73
2017-09-14T23:28:28.856Z,1.93
2017-09-14T23:30:57.719Z,1.53
2017-09-14T23:33:26.592Z,1.50
2017-09-14T23:35:55.452Z,2.00
2017-09-14T23:38:24.536Z,1.83
2017-09-14T23:40:53.394Z,1.90
2017-09-14T23:43:22.303Z,1.53
2017-09-14T23:45:51.172Z,2.07
2017-09-14T23:48:18.698Z,2.23
2017-09-14T23:50:46.213Z,1.90
2017-09-14T23:53:14.514Z,1.93
2017-09-14T23:55:43.169Z,1.80
2017-09-14T23:58:12.596Z,2.20
